Time;durP1;ratioP1;P1;durP2;ratioP2;P2;SDS_P1;SDS_P2;PMS_P1;PMS_P2;Temp;Humidity;BMP_temperature;BMP_pressure;BME280_temperature;BME280_humidity;BME280_pressure;Samples;Min_cycle;Max_cycle;Signal;HPM_P1;HPM_P2
2021/10/13 00:00:31;;;;;;;8.27;2.05;;;11.40;88.70;;;;;;4966985;28;20094;-58
2021/10/13 00:02:58;;;;;;;5.25;1.83;;;11.40;88.70;;;;;;4973837;28;20054;-58
2021/10/13 00:05:25;;;;;;;11.02;1.75;;;11.30;88.70;;;;;;4966993;28;20632;-57
2021/10/13 00:07:52;;;;;;;9.13;1.67;;;11.30;88.90;;;;;;4977291;28;20257;-58
2021/10/13 00:10:19;;;;;;;6.78;1.20;;;11.30;88.90;;;;;;4974082;28;20093;-58
2021/10/13 00:12:45;;;;;;;6.95;1.50;;;11.30;88.90;;;;;;4973665;28;20081;-58
2021/10/13 00:15:12;;;;;;;4.68;1.48;;;11.20;88.90;;;;;;4966738;28;20079;-58
2021/10/13 00:17:39;;;;;;;8.93;2.05;;;11.20;89.00;;;;;;4980751;28;20055;-57
2021/10/13 00:20:06;;;;;;;5.28;1.40;;;11.10;89.10;;;;;;4972063;28;20058;-58
2021/10/13 00:22:33;;;;;;;8.52;1.45;;;11.10;89.00;;;;;;4972165;28;20435;-59
2021/10/13 00:25:00;;;;;;;6.88;1.30;;;11.10;89.20;;;;;;4967664;28;20529;-58
2021/10/13 00:27:27;;;;;;;5.03;1.20;;;11.10;89.40;;;;;;4979927;28;20140;-58
2021/10/13 00:29:53;;;;;;;3.58;1.45;;;11.00;90.00;;;;;;4979191;28;20630;-56
2021/10/13 00:32:20;;;;;;;5.35;1.60;;;11.00;89.60;;;;;;4972867;28;20054;-56
2021/10/13 00:34:47;;;;;;;4.78;1.50;;;11.00;89.70;;;;;;4977885;28;20536;-58
2021/10/13 00:37:14;;;;;;;6.88;1.65;;;10.90;89.80;;;;;;4964961;28;20091;-57
2021/10/13 00:39:41;;;;;;;8.40;1.17;;;10.90;89.70;;;;;;4978060;28;20046;-56
2021/10/13 00:42:07;;;;;;;5.40;1.63;;;10.80;89.40;;;;;;4966634;28;20569;-57
2021/10/13 00:44:34;;;;;;;6.53;1.88;;;10.70;89.40;;;;;;4980349;28;20105;-58
2021/10/13 00:47:01;;;;;;;5.35;1.63;;;10.60;89.50;;;;;;4974885;28;20047;-57
2021/10/13 00:49:28;;;;;;;4.43;1.42;;;10.50;89.80;;;;;;4972912;28;20040;-58
2021/10/13 00:51:54;;;;;;;8.90;1.75;;;10.50;90.00;;;;;;4981499;28;20070;-57
2021/10/13 00:54:22;;;;;;;9.02;1.88;;;10.40;90.10;;;;;;4972992;28;20050;-56
2021/10/13 00:56:49;;;;;;;14.70;3.00;;;10.40;90.20;;;;;;4979813;28;20082;-58
2021/10/13 00:59:16;;;;;;;9.13;1.42;;;10.40;90.20;;;;;;4972730;28;20075;-57
2021/10/13 01:02:04;;;;;;;4.70;1.38;;;10.40;90.10;;;;;;4967033;28;20177;-57
2021/10/13 01:04:54;;;;;;;7.50;1.72;;;10.30;90.40;;;;;;4851902;28;10001356;-57
2021/10/13 01:07:43;;;;;;;7.20;1.27;;;10.30;90.50;;;;;;4978370;28;20407;-58
2021/10/13 01:10:32;;;;;;;5.10;1.67;;;10.10;90.60;;;;;;4955300;28;20217;-58
2021/10/13 01:13:27;;;;;;;6.05;1.40;;;10.00;90.80;;;;;;4959217;28;20106;-56
2021/10/13 01:16:12;;;;;;;;;;;10.00;90.70;;;;;;4968132;28;20046;-57
2021/10/13 01:18:47;;;;;;;9.05;1.20;;;10.00;91.30;;;;;;4965773;28;20425;-56
2021/10/13 01:21:19;;;;;;;4.72;1.20;;;10.00;90.40;;;;;;4959529;28;20110;-56
2021/10/13 01:24:09;;;;;;;5.45;1.67;;;10.00;90.40;;;;;;4957806;28;20055;-58
2021/10/13 01:27:16;;;;;;;6.38;1.80;;;9.90;90.70;;;;;;4955881;28;20105;-58
2021/10/13 01:29:43;;;;;;;8.95;1.50;;;9.90;90.70;;;;;;4963818;28;20082;-56
2021/10/13 01:32:16;;;;;;;8.77;2.15;;;9.90;90.50;;;;;;4972135;28;20137;-58
2021/10/13 01:34:45;;;;;;;6.32;1.23;;;9.90;90.50;;;;;;4967187;28;20046;-57
2021/10/13 01:37:18;;;;;;;5.70;1.60;;;9.80;90.30;;;;;;4947119;28;20516;-55
2021/10/13 01:39:45;;;;;;;6.28;2.00;;;9.80;90.40;;;;;;4972643;28;20050;-56
2021/10/13 01:42:13;;;;;;;7.40;2.00;;;9.80;90.30;;;;;;4970219;28;20097;-58
2021/10/13 01:44:40;;;;;;;6.80;1.40;;;9.70;90.30;;;;;;4953900;28;20117;-58
2021/10/13 01:47:07;;;;;;;10.70;1.80;;;9.70;90.50;;;;;;4957261;28;20124;-56
2021/10/13 01:49:34;;;;;;;11.60;3.40;;;9.70;90.50;;;;;;4951160;28;20055;-58
2021/10/13 01:52:01;;;;;;;5.53;1.98;;;9.70;90.60;;;;;;4951589;28;20102;-57
2021/10/13 01:54:28;;;;;;;5.75;1.83;;;9.60;90.60;;;;;;4965063;28;20077;-56
2021/10/13 01:56:55;;;;;;;5.75;1.40;;;9.50;90.60;;;;;;4960224;28;20469;-56
2021/10/13 01:59:22;;;;;;;11.82;2.78;;;9.50;90.70;;;;;;4967395;28;20074;-56
2021/10/13 02:01:50;;;;;;;4.13;1.48;;;9.50;90.80;;;;;;4954619;28;20055;-56
2021/10/13 02:04:17;;;;;;;13.35;1.40;;;9.50;90.80;;;;;;4980327;28;20046;-55
2021/10/13 02:06:44;;;;;;;6.95;1.50;;;9.50;90.70;;;;;;4969210;28;20093;-55
2021/10/13 02:09:10;;;;;;;5.35;1.48;;;9.50;90.70;;;;;;4956531;28;20085;-56
2021/10/13 02:11:40;;;;;;;8.90;2.03;;;9.40;90.70;;;;;;4975624;28;20054;-57
2021/10/13 02:14:11;;;;;;;7.68;1.40;;;9.40;90.70;;;;;;4975328;28;20105;-56
2021/10/13 02:16:40;;;;;;;7.07;1.55;;;9.40;90.60;;;;;;4947641;28;20122;-57
2021/10/13 02:19:07;;;;;;;7.88;1.73;;;9.30;90.40;;;;;;4950419;28;20051;-55
2021/10/13 02:21:35;;;;;;;5.30;1.45;;;9.20;90.40;;;;;;4951720;28;20074;-56
2021/10/13 02:24:02;;;;;;;17.55;2.33;;;9.20;90.60;;;;;;4970784;28;20059;-57
2021/10/13 02:26:32;;;;;;;4.75;1.38;;;9.20;90.70;;;;;;4947905;28;20089;-56
2021/10/13 02:29:05;;;;;;;6.93;1.30;;;9.20;90.60;;;;;;4954401;28;20074;-61
2021/10/13 02:31:32;;;;;;;4.28;1.55;;;9.10;90.40;;;;;;4962482;28;20663;-56
2021/10/13 02:33:59;;;;;;;4.00;1.48;;;9.00;90.30;;;;;;4954906;28;20061;-56
2021/10/13 02:36:26;;;;;;;13.13;2.17;;;9.00;90.60;;;;;;4957578;28;20156;-57
2021/10/13 02:38:53;;;;;;;8.63;2.97;;;9.00;90.70;;;;;;4949603;28;20038;-55
2021/10/13 02:41:20;;;;;;;6.28;2.05;;;9.00;90.70;;;;;;4960874;28;20113;-58
2021/10/13 02:43:47;;;;;;;6.63;1.63;;;9.00;90.70;;;;;;4968832;28;20082;-56
2021/10/13 02:46:22;;;;;;;9.35;2.35;;;9.00;90.80;;;;;;4975378;28;20109;-56
2021/10/13 02:48:54;;;;;;;1.73;0.95;;;9.00;90.90;;;;;;4964400;28;20045;-57
2021/10/13 02:51:28;;;;;;;5.85;1.33;;;8.90;90.50;;;;;;4957022;28;20080;-57
2021/10/13 02:54:11;;;;;;;5.28;1.63;;;8.90;90.50;;;;;;4945136;28;20050;-55
2021/10/13 02:56:40;;;;;;;5.50;1.60;;;8.80;90.70;;;;;;4956921;28;20594;-56
2021/10/13 02:59:12;;;;;;;7.32;1.85;;;8.80;90.70;;;;;;4977130;28;20579;-55
2021/10/13 03:01:43;;;;;;;3.17;1.40;;;8.80;90.80;;;;;;4952399;28;20485;-55
2021/10/13 03:04:17;;;;;;;4.50;1.27;;;8.70;90.90;;;;;;4973583;28;20058;-56
2021/10/13 03:06:57;;;;;;;7.55;1.65;;;8.70;90.90;;;;;;4960781;28;20092;-57
2021/10/13 03:09:25;;;;;;;7.22;1.73;;;8.70;90.90;;;;;;4953400;28;20082;-54
2021/10/13 03:11:52;;;;;;;3.55;1.20;;;8.60;90.90;;;;;;4972122;28;20047;-57
2021/10/13 03:14:22;;;;;;;5.63;1.35;;;8.60;90.80;;;;;;4936644;28;20097;-58
2021/10/13 03:16:53;;;;;;;5.57;1.38;;;8.60;90.50;;;;;;4956917;28;20058;-56
2021/10/13 03:19:21;;;;;;;3.72;1.00;;;8.50;90.50;;;;;;4938327;28;20146;-56
2021/10/13 03:21:51;;;;;;;3.40;1.33;;;8.40;90.60;;;;;;4950505;28;20082;-54
2021/10/13 03:24:21;;;;;;;2.58;1.25;;;8.30;90.70;;;;;;4944682;28;20051;-57
2021/10/13 03:26:48;;;;;;;2.63;1.20;;;8.20;90.80;;;;;;4950544;28;20047;-58
2021/10/13 03:29:15;;;;;;;4.18;1.50;;;8.20;90.90;;;;;;4948006;28;20134;-58
2021/10/13 03:31:41;;;;;;;8.13;1.90;;;8.30;90.90;;;;;;4965155;28;20039;-57
2021/10/13 03:34:08;;;;;;;6.22;2.08;;;8.30;90.90;;;;;;4961727;28;20141;-59
2021/10/13 03:36:42;;;;;;;5.50;1.40;;;8.30;90.90;;;;;;4961683;28;20078;-58
2021/10/13 03:39:09;;;;;;;;;;;8.30;91.00;;;;;;4945624;28;20117;-57
2021/10/13 03:41:36;;;;;;;4.60;1.10;;;8.20;91.40;;;;;;4958930;28;19926;-57
2021/10/13 03:44:03;;;;;;;3.53;1.17;;;8.00;90.80;;;;;;4967138;28;20070;-58
2021/10/13 03:46:30;;;;;;;4.70;1.80;;;8.10;90.90;;;;;;4936922;28;20039;-56
2021/10/13 03:48:57;;;;;;;4.38;1.55;;;8.10;90.90;;;;;;4962112;28;20074;-56
2021/10/13 03:51:24;;;;;;;9.25;1.35;;;8.10;90.90;;;;;;4973067;28;20085;-56
2021/10/13 03:53:51;;;;;;;9.13;1.40;;;8.10;90.80;;;;;;4969060;28;20557;-55
2021/10/13 03:56:18;;;;;;;4.30;1.27;;;8.00;90.80;;;;;;4977792;28;20047;-58
2021/10/13 03:58:45;;;;;;;4.72;1.20;;;8.00;90.80;;;;;;4972986;28;20141;-57
2021/10/13 04:01:15;;;;;;;3.53;1.10;;;8.00;90.60;;;;;;4971556;28;20104;-55
2021/10/13 04:03:42;;;;;;;6.05;1.48;;;8.00;91.00;;;;;;4966988;28;20051;-58
2021/10/13 04:06:09;;;;;;;4.10;1.50;;;8.10;90.90;;;;;;4968951;28;20047;-56
2021/10/13 04:08:36;;;;;;;4.07;1.10;;;7.90;90.90;;;;;;4971790;28;20051;-55
2021/10/13 04:11:03;;;;;;;6.35;1.60;;;7.90;90.90;;;;;;4964703;28;20320;-58
2021/10/13 04:13:29;;;;;;;5.40;1.40;;;8.00;90.90;;;;;;4950593;28;20073;-57
2021/10/13 04:15:56;;;;;;;3.63;1.92;;;7.90;90.80;;;;;;4965182;28;20051;-56
2021/10/13 04:18:23;;;;;;;6.72;1.58;;;7.90;90.90;;;;;;4955166;28;20497;-56
2021/10/13 04:20:50;;;;;;;5.95;1.70;;;7.90;90.80;;;;;;4953410;28;20150;-57
2021/10/13 04:23:17;;;;;;;2.83;1.45;;;7.90;90.70;;;;;;4962964;28;20146;-57
2021/10/13 04:25:44;;;;;;;2.67;1.48;;;7.90;90.90;;;;;;4971605;28;20039;-58
2021/10/13 04:28:11;;;;;;;9.70;2.05;;;7.80;90.70;;;;;;4942920;28;20166;-58
2021/10/13 04:30:39;;;;;;;5.53;1.52;;;7.80;90.90;;;;;;4978755;28;20050;-57
2021/10/13 04:33:06;;;;;;;3.05;2.45;;;7.80;90.90;;;;;;4979781;28;20046;-57
2021/10/13 04:35:33;;;;;;;8.70;2.30;;;7.80;90.90;;;;;;4974498;28;20465;-56
2021/10/13 04:38:03;;;;;;;4.57;1.33;;;7.80;90.80;;;;;;4958975;28;20146;-55
2021/10/13 04:40:31;;;;;;;7.55;1.73;;;7.80;90.90;;;;;;4966256;28;20050;-56
2021/10/13 04:42:58;;;;;;;8.98;2.08;;;7.80;90.90;;;;;;4963931;28;20047;-56
2021/10/13 04:45:25;;;;;;;2.05;1.40;;;7.80;90.70;;;;;;4965163;28;20130;-56
2021/10/13 04:47:52;;;;;;;3.05;1.58;;;7.70;90.80;;;;;;4969156;28;20447;-54
2021/10/13 04:50:19;;;;;;;4.03;1.60;;;7.70;90.60;;;;;;4963915;28;20423;-56
2021/10/13 04:52:45;;;;;;;2.83;1.48;;;7.60;90.50;;;;;;4952537;28;20050;-56
2021/10/13 04:55:12;;;;;;;3.85;1.60;;;7.60;90.70;;;;;;4961406;28;20423;-57
2021/10/13 04:57:39;;;;;;;3.47;1.27;;;7.50;90.80;;;;;;4960166;28;20051;-56
2021/10/13 05:00:06;;;;;;;2.78;1.67;;;7.50;90.90;;;;;;4969037;28;20100;-56
2021/10/13 05:02:33;;;;;;;2.42;1.05;;;7.50;90.70;;;;;;4972259;28;20090;-56
2021/10/13 05:05:00;;;;;;;2.28;1.38;;;7.50;90.70;;;;;;4964608;28;20051;-56
2021/10/13 05:07:27;;;;;;;4.35;1.10;;;7.50;90.70;;;;;;4980316;28;20051;-57
2021/10/13 05:09:54;;;;;;;3.85;1.30;;;7.40;90.80;;;;;;4962524;28;20085;-57
2021/10/13 05:12:20;;;;;;;8.10;1.58;;;7.50;90.90;;;;;;4966425;28;20110;-57
2021/10/13 05:14:48;;;;;;;1.52;1.10;;;7.50;90.90;;;;;;4973977;28;20490;-57
2021/10/13 05:17:15;;;;;;;4.88;1.30;;;7.40;90.80;;;;;;4962827;28;20137;-55
2021/10/13 05:19:41;;;;;;;4.22;1.80;;;7.30;90.70;;;;;;4972025;28;20066;-55
2021/10/13 05:22:08;;;;;;;6.20;1.85;;;7.30;90.80;;;;;;4968055;28;20100;-57
2021/10/13 05:24:35;;;;;;;8.60;1.90;;;7.30;90.90;;;;;;4973317;28;20129;-56
2021/10/13 05:27:02;;;;;;;3.72;1.48;;;7.30;91.10;;;;;;4943864;28;20101;-56
2021/10/13 05:29:28;;;;;;;8.60;2.20;;;7.30;91.00;;;;;;4970319;28;20078;-57
2021/10/13 05:31:55;;;;;;;9.27;2.05;;;7.40;91.00;;;;;;4944881;28;20039;-57
2021/10/13 05:34:22;;;;;;;2.63;1.58;;;7.40;91.00;;;;;;4967654;28;20046;-56
2021/10/13 05:36:49;;;;;;;5.75;2.72;;;7.40;91.00;;;;;;4966414;28;20079;-55
2021/10/13 05:39:15;;;;;;;8.93;2.20;;;7.40;91.00;;;;;;4966815;28;20161;-56
2021/10/13 05:41:42;;;;;;;6.32;2.05;;;7.30;90.90;;;;;;4952513;28;20078;-56
2021/10/13 05:44:09;;;;;;;3.28;1.75;;;7.40;90.90;;;;;;4968228;28;20050;-55
2021/10/13 05:46:36;;;;;;;3.08;1.60;;;7.30;90.80;;;;;;4970180;28;20415;-55
2021/10/13 05:49:03;;;;;;;8.57;2.25;;;7.30;90.90;;;;;;4970254;28;20105;-57
2021/10/13 05:51:30;;;;;;;10.35;2.40;;;7.30;90.70;;;;;;4964471;28;20054;-56
2021/10/13 05:53:56;;;;;;;7.32;2.55;;;7.30;90.70;;;;;;4963956;28;20054;-55
2021/10/13 05:56:23;;;;;;;8.27;2.67;;;7.30;90.80;;;;;;4962492;28;20055;-56
2021/10/13 05:58:53;;;;;;;11.90;2.97;;;7.20;90.90;;;;;;4975081;28;20046;-57
2021/10/13 06:01:20;;;;;;;8.95;2.97;;;7.20;90.90;;;;;;4971959;28;20471;-55
2021/10/13 06:03:48;;;;;;;9.32;2.20;;;7.30;91.00;;;;;;4964350;28;20046;-55
2021/10/13 06:06:15;;;;;;;4.72;1.95;;;7.30;91.00;;;;;;4972097;28;20051;-56
2021/10/13 06:08:43;;;;;;;4.95;2.08;;;7.30;91.10;;;;;;4972169;28;20053;-59
2021/10/13 06:11:10;;;;;;;7.85;2.85;;;7.30;91.30;;;;;;4969985;28;20468;-56
2021/10/13 06:13:37;;;;;;;13.77;3.42;;;7.20;91.20;;;;;;4968349;28;20105;-55
2021/10/13 06:16:07;;;;;;;7.45;2.45;;;7.30;91.30;;;;;;4973414;28;20101;-56
2021/10/13 06:18:34;;;;;;;13.43;3.15;;;7.30;91.40;;;;;;4966999;28;20078;-56
2021/10/13 06:21:01;;;;;;;13.90;4.50;;;7.40;91.50;;;;;;4941588;28;20087;-57
2021/10/13 06:23:28;;;;;;;19.27;4.68;;;7.50;91.50;;;;;;4950542;28;20126;-56
2021/10/13 06:25:54;;;;;;;11.15;3.67;;;7.60;91.60;;;;;;4947885;28;20109;-57
2021/10/13 06:28:21;;;;;;;10.63;4.20;;;7.70;91.50;;;;;;4951918;28;20578;-56
2021/10/13 06:30:48;;;;;;;7.22;2.78;;;7.70;91.30;;;;;;4958595;28;20102;-56
2021/10/13 06:33:15;;;;;;;230.15;99.22;;;7.70;91.40;;;;;;4945613;28;20109;-55
2021/10/13 06:35:42;;;;;;;20.50;9.57;;;7.70;91.50;;;;;;4942729;28;20070;-55
2021/10/13 06:38:08;;;;;;;10.18;4.97;;;7.80;91.50;;;;;;4948835;28;20059;-54
2021/10/13 06:40:35;;;;;;;6.75;3.42;;;7.80;91.40;;;;;;4953390;28;20134;-57
2021/10/13 06:43:04;;;;;;;7.18;3.10;;;7.80;91.40;;;;;;4946702;28;20142;-55
2021/10/13 06:45:35;;;;;;;15.02;4.07;;;7.90;91.40;;;;;;4949071;28;20066;-54
2021/10/13 06:48:03;;;;;;;8.68;4.32;;;7.90;91.40;;;;;;4953091;28;20101;-54
2021/10/13 06:50:30;;;;;;;9.00;3.42;;;7.90;91.40;;;;;;4950841;28;20090;-55
2021/10/13 06:52:57;;;;;;;11.43;3.70;;;8.00;91.60;;;;;;4946855;28;20054;-51
2021/10/13 06:55:24;;;;;;;6.45;3.17;;;8.00;91.30;;;;;;4948514;28;20047;-55
2021/10/13 06:57:51;;;;;;;12.23;3.40;;;8.00;91.30;;;;;;4954998;28;20062;-51
2021/10/13 07:00:18;;;;;;;11.88;4.25;;;8.10;91.50;;;;;;4944589;28;20081;-53
2021/10/13 07:02:44;;;;;;;8.20;3.30;;;8.20;91.40;;;;;;4954720;28;20113;-54
2021/10/13 07:05:12;;;;;;;9.73;4.03;;;8.30;91.40;;;;;;4955593;28;20051;-54
2021/10/13 07:07:48;;;;;;;11.02;4.72;;;8.30;91.30;;;;;;4948926;28;20083;-52
2021/10/13 07:10:16;;;;;;;9.65;4.22;;;8.30;91.30;;;;;;4951453;28;20070;-54
2021/10/13 07:12:46;;;;;;;9.02;3.58;;;8.40;91.40;;;;;;4953761;28;20047;-54
2021/10/13 07:15:13;;;;;;;11.85;4.57;;;8.40;91.40;;;;;;4941057;28;20048;-53
2021/10/13 07:17:40;;;;;;;8.25;4.00;;;8.50;91.40;;;;;;4942408;28;20569;-54
2021/10/13 07:20:07;;;;;;;7.32;4.05;;;8.60;91.50;;;;;;4957942;28;20055;-54
2021/10/13 07:22:34;;;;;;;9.45;4.88;;;8.60;91.40;;;;;;4962973;28;20052;-51
2021/10/13 07:25:01;;;;;;;11.15;4.07;;;8.60;91.30;;;;;;4975605;28;20046;-53
2021/10/13 07:27:28;;;;;;;13.32;4.03;;;8.70;91.30;;;;;;4963361;28;20039;-55
2021/10/13 07:29:57;;;;;;;7.88;3.97;;;8.80;91.40;;;;;;4973522;28;20051;-60
2021/10/13 07:32:25;;;;;;;11.38;4.18;;;8.80;91.40;;;;;;4968151;28;20043;-51
2021/10/13 07:35:11;;;;;;;13.40;4.45;;;8.90;91.40;;;;;;4970793;28;20052;-52
2021/10/13 07:37:38;;;;;;;11.18;4.63;;;8.90;91.30;;;;;;4971760;28;20079;-55
2021/10/13 07:40:05;;;;;;;10.00;3.70;;;9.00;91.30;;;;;;4953036;28;20138;-56
2021/10/13 07:42:32;;;;;;;7.15;3.67;;;9.10;91.10;;;;;;4975874;28;20043;-54
2021/10/13 07:45:00;;;;;;;16.52;3.53;;;9.10;91.20;;;;;;4975997;28;20501;-52
2021/10/13 07:47:27;;;;;;;11.68;3.33;;;9.20;91.20;;;;;;4969866;28;20113;-56
2021/10/13 07:49:53;;;;;;;7.95;3.25;;;9.20;91.10;;;;;;4964563;28;20051;-55
2021/10/13 07:52:21;;;;;;;8.70;3.35;;;9.30;91.00;;;;;;4963030;28;20042;-54
2021/10/13 07:54:47;;;;;;;11.40;3.05;;;9.40;91.10;;;;;;4971943;28;20054;-54
2021/10/13 07:57:14;;;;;;;7.40;2.78;;;9.40;91.00;;;;;;4958483;28;20055;-54
2021/10/13 07:59:41;;;;;;;15.30;4.28;;;9.40;91.00;;;;;;4971911;28;20074;-53
2021/10/13 08:02:08;;;;;;;12.45;3.97;;;9.50;91.00;;;;;;4967192;28;20095;-54
2021/10/13 08:04:35;;;;;;;10.82;3.70;;;9.50;91.20;;;;;;4970381;28;20147;-54
2021/10/13 08:07:02;;;;;;;14.15;3.40;;;9.60;91.10;;;;;;4967781;28;20055;-55
2021/10/13 08:09:28;;;;;;;8.77;3.50;;;9.70;91.10;;;;;;4967228;28;20157;-53
2021/10/13 08:11:55;;;;;;;13.40;3.40;;;9.70;91.10;;;;;;4964471;28;20178;-55
2021/10/13 08:14:22;;;;;;;12.38;5.38;;;9.80;91.20;;;;;;4968792;28;20170;-54
2021/10/13 08:16:49;;;;;;;8.38;3.17;;;9.90;91.00;;;;;;4974278;28;20592;-53
2021/10/13 08:19:15;;;;;;;11.05;4.32;;;9.90;91.10;;;;;;4965943;28;20146;-54
2021/10/13 08:21:42;;;;;;;5.95;3.33;;;9.90;91.10;;;;;;4966663;28;20098;-54
2021/10/13 08:24:09;;;;;;;12.55;3.63;;;10.00;91.00;;;;;;4967423;28;20442;-53
2021/10/13 08:26:36;;;;;;;14.48;3.95;;;10.00;91.10;;;;;;4971794;28;20102;-53
2021/10/13 08:29:03;;;;;;;13.55;4.32;;;10.00;91.00;;;;;;4975729;28;20050;-54
2021/10/13 08:31:30;;;;;;;10.20;3.83;;;10.20;91.20;;;;;;4966999;28;20110;-55
2021/10/13 08:33:56;;;;;;;7.53;3.47;;;10.30;91.20;;;;;;4975437;28;20141;-53
2021/10/13 08:36:23;;;;;;;8.43;3.60;;;10.30;91.40;;;;;;4966500;28;20050;-54
2021/10/13 08:38:50;;;;;;;7.53;3.38;;;10.40;91.10;;;;;;4977255;28;20054;-53
2021/10/13 08:41:17;;;;;;;10.52;3.47;;;10.40;91.00;;;;;;4975856;28;20058;-52
2021/10/13 08:43:44;;;;;;;15.38;5.70;;;10.40;90.90;;;;;;4969179;28;20560;-55
2021/10/13 08:46:11;;;;;;;13.57;3.85;;;10.50;90.90;;;;;;4978707;28;20510;-52
2021/10/13 08:48:39;;;;;;;10.00;3.47;;;10.60;90.90;;;;;;4973389;28;20051;-53
2021/10/13 08:51:05;;;;;;;9.25;3.38;;;10.60;90.90;;;;;;4970094;28;20090;-54
2021/10/13 08:53:32;;;;;;;9.20;4.28;;;10.60;90.80;;;;;;4978677;28;20074;-58
2021/10/13 08:56:00;;;;;;;8.98;3.60;;;10.70;90.80;;;;;;4967515;28;20074;-55
2021/10/13 08:58:30;;;;;;;13.75;3.88;;;10.80;90.80;;;;;;4976197;28;20146;-55
2021/10/13 09:01:07;;;;;;;12.90;3.42;;;10.80;90.60;;;;;;4973956;28;20466;-52
2021/10/13 09:03:35;;;;;;;15.15;4.05;;;10.80;90.30;;;;;;4959404;28;20421;-55
2021/10/13 09:06:15;;;;;;;9.25;4.00;;;10.90;90.60;;;;;;4967432;28;20109;-53
2021/10/13 09:09:05;;;;;;;12.55;4.35;;;10.80;90.40;;;;;;4970158;28;20183;-58
2021/10/13 09:11:33;;;;;;;12.27;3.88;;;11.00;91.00;;;;;;4966173;28;20042;-55
2021/10/13 09:14:26;;;;;;;15.57;4.30;;;11.00;90.60;;;;;;4966553;28;20103;-51
2021/10/13 09:16:58;;;;;;;12.85;4.65;;;11.20;90.70;;;;;;4968567;28;20479;-51
2021/10/13 09:19:44;;;;;;;12.35;4.22;;;11.20;90.50;;;;;;4968365;28;20510;-55
2021/10/13 09:22:13;;;;;;;11.65;4.30;;;11.30;90.30;;;;;;4969451;28;20142;-53
2021/10/13 09:24:44;;;;;;;11.18;3.80;;;11.40;90.40;;;;;;4960346;28;20075;-55
2021/10/13 09:27:23;;;;;;;12.38;4.40;;;11.40;90.30;;;;;;4959555;28;20042;-51
2021/10/13 09:29:51;;;;;;;8.60;3.85;;;11.40;89.40;;;;;;4961963;28;20070;-55
2021/10/13 09:32:22;;;;;;;13.65;4.43;;;11.40;90.00;;;;;;4964893;28;20082;-53
2021/10/13 09:34:51;;;;;;;9.35;3.85;;;11.40;89.80;;;;;;4964147;28;20054;-52
2021/10/13 09:37:17;;;;;;;10.65;4.45;;;11.40;89.80;;;;;;4964106;28;20101;-52
2021/10/13 09:40:02;;;;;;;12.25;5.93;;;11.40;89.40;;;;;;4960392;28;20055;-53
2021/10/13 09:42:36;;;;;;;11.32;3.95;;;11.30;88.70;;;;;;4974587;28;20086;-54
2021/10/13 09:45:03;;;;;;;10.05;4.38;;;11.30;88.10;;;;;;4970262;28;20154;-53
2021/10/13 09:47:33;;;;;;;7.32;4.43;;;11.30;89.30;;;;;;4965495;28;20089;-55
2021/10/13 09:50:01;;;;;;;12.50;4.03;;;11.30;89.00;;;;;;4963832;28;20440;-54
2021/10/13 09:52:31;;;;;;;7.68;3.75;;;11.30;87.90;;;;;;4969444;28;20452;-51
2021/10/13 09:55:08;;;;;;;13.70;4.53;;;11.30;88.40;;;;;;4967674;28;20042;-51
2021/10/13 09:57:46;;;;;;;9.13;5.03;;;11.30;88.20;;;;;;4971958;28;20062;-52
2021/10/13 10:00:22;;;;;;;9.98;4.80;;;11.40;87.90;;;;;;4976913;28;20529;-53
2021/10/13 10:02:50;;;;;;;10.82;4.22;;;11.40;87.60;;;;;;4976236;28;20055;-55
2021/10/13 10:05:30;;;;;;;15.77;5.30;;;11.50;88.40;;;;;;4971411;28;20050;-53
2021/10/13 10:08:03;;;;;;;8.13;5.20;;;11.50;87.50;;;;;;4972132;28;20106;-57
2021/10/13 10:10:30;;;;;;;12.80;4.38;;;11.60;88.10;;;;;;4973911;28;20096;-56
2021/10/13 10:13:02;;;;;;;11.95;4.30;;;11.60;87.60;;;;;;4970093;28;20050;-52
2021/10/13 10:15:48;;;;;;;8.82;4.85;;;11.70;87.80;;;;;;4979362;28;20062;-52
2021/10/13 10:18:32;;;;;;;11.70;4.47;;;11.70;85.70;;;;;;4969015;28;20075;-51
2021/10/13 10:21:27;;;;;;;8.93;4.32;;;11.80;86.10;;;;;;4975454;28;20498;-55
2021/10/13 10:23:54;;;;;;;18.23;5.65;;;11.80;86.00;;;;;;4973384;28;20564;-53
2021/10/13 10:26:28;;;;;;;8.80;4.18;;;11.80;87.10;;;;;;4979027;28;20149;-54
2021/10/13 10:28:57;;;;;;;8.15;4.38;;;11.90;85.00;;;;;;4969860;28;20070;-54
2021/10/13 10:31:27;;;;;;;11.13;4.15;;;12.00;86.70;;;;;;4971159;28;20055;-54
2021/10/13 10:34:06;;;;;;;15.00;6.07;;;12.00;86.50;;;;;;4971051;28;20058;-54
2021/10/13 10:36:37;;;;;;;8.63;4.20;;;12.10;85.30;;;;;;4970944;28;20141;-53
2021/10/13 10:39:05;;;;;;;9.85;5.15;;;12.10;86.40;;;;;;4972095;28;20086;-53
2021/10/13 10:41:52;;;;;;;12.52;4.95;;;12.10;86.80;;;;;;4975245;28;20473;-54
2021/10/13 10:44:37;;;;;;;7.63;3.90;;;12.30;84.80;;;;;;4973570;28;20089;-54
2021/10/13 10:47:13;;;;;;;11.13;3.97;;;12.30;84.70;;;;;;4968901;28;20332;-54
2021/10/13 10:50:03;;;;;;;7.35;3.72;;;12.40;83.90;;;;;;4949594;28;20101;-53
2021/10/13 10:52:30;;;;;;;5.82;3.70;;;12.50;84.80;;;;;;4953580;28;20177;-54
2021/10/13 10:55:07;;;;;;;9.18;4.10;;;12.60;85.50;;;;;;4945425;28;20129;-55
2021/10/13 10:57:43;;;;;;;7.38;3.88;;;12.70;84.30;;;;;;4963660;28;20051;-54
2021/10/13 11:00:31;;;;;;;9.23;4.35;;;12.80;83.60;;;;;;4970029;28;20478;-55
2021/10/13 11:03:21;;;;;;;5.97;4.30;;;12.80;83.40;;;;;;4960911;28;20046;-54
2021/10/13 11:05:51;;;;;;;13.18;3.83;;;12.80;83.40;;;;;;4978546;28;20577;-52
2021/10/13 11:08:18;;;;;;;7.25;3.88;;;12.90;85.00;;;;;;4956683;28;20574;-56
2021/10/13 11:10:45;;;;;;;8.40;3.97;;;13.00;84.50;;;;;;4976865;28;20149;-60
2021/10/13 11:13:11;;;;;;;8.88;3.60;;;13.10;84.10;;;;;;4968400;28;20089;-50
2021/10/13 11:15:41;;;;;;;6.50;3.15;;;13.20;83.80;;;;;;4967665;28;20081;-51
2021/10/13 11:18:15;;;;;;;9.07;2.97;;;13.20;83.10;;;;;;4984056;28;20058;-54
2021/10/13 11:20:42;;;;;;;7.13;3.33;;;13.30;81.80;;;;;;4974378;28;20117;-50
2021/10/13 11:23:11;;;;;;;9.75;3.00;;;13.50;83.40;;;;;;4975470;28;20514;-54
2021/10/13 11:25:39;;;;;;;8.55;3.50;;;13.50;81.70;;;;;;4978595;28;20109;-53
2021/10/13 11:28:10;;;;;;;8.77;3.42;;;13.50;82.60;;;;;;4973124;28;20141;-51
2021/10/13 11:30:46;;;;;;;6.55;2.97;;;13.60;82.10;;;;;;4974536;28;20053;-54
2021/10/13 11:33:15;;;;;;;8.80;3.20;;;13.60;82.20;;;;;;4980579;28;20058;-52
2021/10/13 11:35:44;;;;;;;7.35;2.88;;;13.70;81.90;;;;;;4973775;28;20750;-52
2021/10/13 11:38:19;;;;;;;7.20;3.45;;;13.90;82.50;;;;;;4978295;28;20054;-53
2021/10/13 11:40:46;;;;;;;8.15;3.28;;;14.00;80.50;;;;;;4981296;28;20059;-52
2021/10/13 11:43:16;;;;;;;4.53;2.38;;;14.00;82.10;;;;;;4977351;28;20070;-52
2021/10/13 11:45:50;;;;;;;6.03;2.85;;;14.10;81.10;;;;;;4982763;28;20130;-53
2021/10/13 11:48:24;;;;;;;6.10;2.83;;;14.20;80.20;;;;;;4974725;28;20074;-53
2021/10/13 11:50:52;;;;;;;6.75;3.03;;;14.20;80.10;;;;;;4983369;28;20478;-59
2021/10/13 11:53:19;;;;;;;11.27;3.35;;;14.30;81.80;;;;;;4973607;28;20493;-56
2021/10/13 11:55:46;;;;;;;4.50;2.47;;;14.30;80.90;;;;;;4983064;28;20078;-55
2021/10/13 11:58:22;;;;;;;7.05;2.75;;;14.40;82.30;;;;;;4977540;28;20101;-53
2021/10/13 12:00:49;;;;;;;6.25;2.75;;;14.50;80.80;;;;;;4975438;28;20058;-54
2021/10/13 12:03:16;;;;;;;9.45;2.20;;;14.60;81.50;;;;;;4978260;28;20047;-52
2021/10/13 12:05:45;;;;;;;3.13;2.17;;;14.70;80.90;;;;;;4983461;28;20137;-54
2021/10/13 12:08:16;;;;;;;4.05;2.63;;;14.80;79.70;;;;;;4982906;28;20074;-56
2021/10/13 12:10:49;;;;;;;8.73;1.90;;;14.90;80.80;;;;;;4978736;28;20043;-54
2021/10/13 12:13:16;;;;;;;4.32;2.13;;;15.00;79.70;;;;;;4968534;28;20082;-53
2021/10/13 12:15:44;;;;;;;5.20;2.30;;;15.10;80.70;;;;;;4978175;28;20069;-53
2021/10/13 12:18:21;;;;;;;10.85;2.85;;;15.20;80.60;;;;;;4969346;28;20061;-55
2021/10/13 12:21:10;;;;;;;7.43;2.40;;;15.30;78.10;;;;;;4973609;28;20054;-54
2021/10/13 12:23:59;;;;;;;7.43;2.22;;;15.30;75.10;;;;;;4970525;28;20047;-52
2021/10/13 12:26:29;;;;;;;6.45;1.73;;;15.40;76.70;;;;;;4980720;28;20038;-55
2021/10/13 12:29:06;;;;;;;3.90;1.80;;;15.40;77.40;;;;;;4978514;28;20082;-54
2021/10/13 12:31:32;;;;;;;10.13;2.83;;;15.50;78.50;;;;;;4967766;28;20043;-53
2021/10/13 12:34:07;;;;;;;6.25;2.13;;;15.50;79.60;;;;;;4980223;28;20051;-52
2021/10/13 12:36:34;;;;;;;7.45;2.40;;;15.60;77.20;;;;;;4978689;28;20057;-51
2021/10/13 12:39:03;;;;;;;5.60;2.15;;;15.70;77.00;;;;;;4972564;28;20138;-52
2021/10/13 12:41:34;;;;;;;6.22;2.40;;;15.60;77.80;;;;;;4977243;28;20504;-53
2021/10/13 12:44:29;;;;;;;5.10;1.90;;;15.60;78.10;;;;;;4966365;28;20055;-53
2021/10/13 12:46:59;;;;;;;6.93;2.10;;;15.60;77.50;;;;;;4980469;28;20125;-57
2021/10/13 12:49:32;;;;;;;5.55;2.70;;;15.60;77.90;;;;;;4967405;28;20053;-57
2021/10/13 12:52:03;;;;;;;5.97;2.10;;;15.50;76.20;;;;;;4951387;28;20054;-50
2021/10/13 12:54:31;;;;;;;8.02;2.38;;;15.40;77.60;;;;;;4967600;28;20050;-53
2021/10/13 12:56:58;;;;;;;12.23;2.13;;;15.50;78.40;;;;;;4975217;28;20672;-53
2021/10/13 12:59:25;;;;;;;4.20;2.10;;;15.60;79.20;;;;;;4980063;28;20050;-53
2021/10/13 13:01:52;;;;;;;7.70;2.38;;;15.70;78.50;;;;;;4967011;28;20081;-52
2021/10/13 13:04:19;;;;;;;5.05;2.30;;;15.80;78.90;;;;;;4974145;28;20489;-54